sensor_id;sensor_type;location;lat;lon;timestamp;P1;durP1;ratioP1;P2;durP2;ratioP2
76593;SDS011;65482;50.240;14.302;2024-02-16T00:02:07;44.03;;;22.83;;
76593;SDS011;65482;50.240;14.302;2024-02-16T00:04:34;47.28;;;23.45;;
76593;SDS011;65482;50.240;14.302;2024-02-16T00:07:02;48.30;;;21.40;;
76593;SDS011;65482;50.240;14.302;2024-02-16T00:09:28;58.13;;;22.30;;
76593;SDS011;65482;50.240;14.302;2024-02-16T00:11:55;45.58;;;21.85;;
76593;SDS011;65482;50.240;14.302;2024-02-16T00:14:21;49.50;;;22.35;;
76593;SDS011;65482;50.240;14.302;2024-02-16T00:16:47;93.93;;;21.90;;
76593;SDS011;65482;50.240;14.302;2024-02-16T00:19:14;53.60;;;23.08;;
76593;SDS011;65482;50.240;14.302;2024-02-16T00:21:41;89.32;;;24.65;;
76593;SDS011;65482;50.240;14.302;2024-02-16T00:24:08;119.38;;;27.08;;
76593;SDS011;65482;50.240;14.302;2024-02-16T00:26:36;102.72;;;27.75;;
76593;SDS011;65482;50.240;14.302;2024-02-16T00:29:05;121.32;;;28.63;;
76593;SDS011;65482;50.240;14.302;2024-02-16T00:31:31;86.28;;;26.10;;
76593;SDS011;65482;50.240;14.302;2024-02-16T00:33:57;87.18;;;22.13;;
76593;SDS011;65482;50.240;14.302;2024-02-16T00:36:28;58.85;;;19.70;;
76593;SDS011;65482;50.240;14.302;2024-02-16T00:38:56;106.65;;;20.63;;
76593;SDS011;65482;50.240;14.302;2024-02-16T00:41:24;84.22;;;20.27;;
76593;SDS011;65482;50.240;14.302;2024-02-16T00:43:50;102.65;;;21.60;;
76593;SDS011;65482;50.240;14.302;2024-02-16T00:46:20;80.95;;;20.92;;
76593;SDS011;65482;50.240;14.302;2024-02-16T00:48:54;78.68;;;22.33;;
76593;SDS011;65482;50.240;14.302;2024-02-16T00:51:21;71.85;;;20.33;;
76593;SDS011;65482;50.240;14.302;2024-02-16T00:53:48;101.05;;;23.85;;
76593;SDS011;65482;50.240;14.302;2024-02-16T00:56:15;99.75;;;20.85;;
76593;SDS011;65482;50.240;14.302;2024-02-16T00:58:41;81.97;;;21.58;;
76593;SDS011;65482;50.240;14.302;2024-02-16T01:01:11;71.95;;;19.58;;
76593;SDS011;65482;50.240;14.302;2024-02-16T01:03:38;77.68;;;22.40;;
76593;SDS011;65482;50.240;14.302;2024-02-16T01:06:05;81.03;;;21.50;;
76593;SDS011;65482;50.240;14.302;2024-02-16T01:08:35;84.35;;;22.02;;
76593;SDS011;65482;50.240;14.302;2024-02-16T01:11:02;69.35;;;22.00;;
76593;SDS011;65482;50.240;14.302;2024-02-16T01:13:28;77.32;;;22.55;;
76593;SDS011;65482;50.240;14.302;2024-02-16T01:15:55;52.53;;;20.52;;
76593;SDS011;65482;50.240;14.302;2024-02-16T01:18:24;68.10;;;21.08;;
76593;SDS011;65482;50.240;14.302;2024-02-16T01:20:56;66.28;;;22.23;;
76593;SDS011;65482;50.240;14.302;2024-02-16T01:23:23;60.42;;;20.15;;
76593;SDS011;65482;50.240;14.302;2024-02-16T01:25:50;58.03;;;20.48;;
76593;SDS011;65482;50.240;14.302;2024-02-16T01:28:19;51.70;;;18.92;;
76593;SDS011;65482;50.240;14.302;2024-02-16T01:30:49;44.60;;;20.58;;
76593;SDS011;65482;50.240;14.302;2024-02-16T01:33:19;62.13;;;20.73;;
76593;SDS011;65482;50.240;14.302;2024-02-16T01:35:49;45.75;;;19.52;;
76593;SDS011;65482;50.240;14.302;2024-02-16T01:38:18;44.15;;;18.83;;
76593;SDS011;65482;50.240;14.302;2024-02-16T01:40:47;61.45;;;20.75;;
76593;SDS011;65482;50.240;14.302;2024-02-16T01:43:21;69.18;;;21.40;;
76593;SDS011;65482;50.240;14.302;2024-02-16T01:45:51;58.47;;;20.65;;
76593;SDS011;65482;50.240;14.302;2024-02-16T01:48:20;54.20;;;18.70;;
76593;SDS011;65482;50.240;14.302;2024-02-16T01:50:46;40.30;;;18.40;;
76593;SDS011;65482;50.240;14.302;2024-02-16T01:53:17;37.90;;;18.38;;
76593;SDS011;65482;50.240;14.302;2024-02-16T01:55:48;49.42;;;18.77;;
76593;SDS011;65482;50.240;14.302;2024-02-16T01:58:18;38.45;;;18.33;;
76593;SDS011;65482;50.240;14.302;2024-02-16T02:00:46;34.40;;;18.00;;
76593;SDS011;65482;50.240;14.302;2024-02-16T02:03:14;36.83;;;19.02;;
76593;SDS011;65482;50.240;14.302;2024-02-16T02:05:47;34.70;;;18.63;;
76593;SDS011;65482;50.240;14.302;2024-02-16T02:08:15;54.95;;;20.02;;
76593;SDS011;65482;50.240;14.302;2024-02-16T02:10:45;38.92;;;18.75;;
76593;SDS011;65482;50.240;14.302;2024-02-16T02:13:16;38.08;;;19.42;;
76593;SDS011;65482;50.240;14.302;2024-02-16T02:15:47;32.78;;;18.42;;
76593;SDS011;65482;50.240;14.302;2024-02-16T02:18:16;49.58;;;19.40;;
76593;SDS011;65482;50.240;14.302;2024-02-16T02:20:47;42.47;;;19.23;;
76593;SDS011;65482;50.240;14.302;2024-02-16T02:23:25;31.42;;;17.17;;
76593;SDS011;65482;50.240;14.302;2024-02-16T02:25:54;36.70;;;17.73;;
76593;SDS011;65482;50.240;14.302;2024-02-16T02:28:26;32.53;;;18.27;;
76593;SDS011;65482;50.240;14.302;2024-02-16T02:30:56;35.42;;;18.33;;
76593;SDS011;65482;50.240;14.302;2024-02-16T02:33:24;31.73;;;18.13;;
76593;SDS011;65482;50.240;14.302;2024-02-16T02:35:55;28.75;;;16.67;;
76593;SDS011;65482;50.240;14.302;2024-02-16T02:38:26;31.40;;;17.95;;
76593;SDS011;65482;50.240;14.302;2024-02-16T02:40:57;28.85;;;17.55;;
76593;SDS011;65482;50.240;14.302;2024-02-16T02:43:26;34.20;;;18.17;;
76593;SDS011;65482;50.240;14.302;2024-02-16T02:45:54;41.22;;;20.67;;
76593;SDS011;65482;50.240;14.302;2024-02-16T02:48:21;44.25;;;20.70;;
76593;SDS011;65482;50.240;14.302;2024-02-16T02:50:49;42.65;;;21.55;;
76593;SDS011;65482;50.240;14.302;2024-02-16T02:53:19;47.33;;;22.10;;
76593;SDS011;65482;50.240;14.302;2024-02-16T02:55:50;39.00;;;18.80;;
76593;SDS011;65482;50.240;14.302;2024-02-16T02:58:16;40.17;;;19.95;;
76593;SDS011;65482;50.240;14.302;2024-02-16T03:00:46;42.55;;;20.40;;
76593;SDS011;65482;50.240;14.302;2024-02-16T03:03:12;38.88;;;19.83;;
76593;SDS011;65482;50.240;14.302;2024-02-16T03:05:42;37.25;;;18.90;;
76593;SDS011;65482;50.240;14.302;2024-02-16T03:08:11;41.42;;;19.98;;
76593;SDS011;65482;50.240;14.302;2024-02-16T03:10:41;37.50;;;20.20;;
76593;SDS011;65482;50.240;14.302;2024-02-16T03:13:18;44.80;;;20.92;;
76593;SDS011;65482;50.240;14.302;2024-02-16T03:15:45;42.78;;;21.17;;
76593;SDS011;65482;50.240;14.302;2024-02-16T03:18:11;43.83;;;20.92;;
76593;SDS011;65482;50.240;14.302;2024-02-16T03:20:38;44.50;;;19.90;;
76593;SDS011;65482;50.240;14.302;2024-02-16T03:23:06;44.97;;;20.25;;
76593;SDS011;65482;50.240;14.302;2024-02-16T03:25:33;45.63;;;19.73;;
76593;SDS011;65482;50.240;14.302;2024-02-16T03:27:59;40.00;;;19.45;;
76593;SDS011;65482;50.240;14.302;2024-02-16T03:30:30;39.40;;;19.73;;
76593;SDS011;65482;50.240;14.302;2024-02-16T03:32:56;37.33;;;18.98;;
76593;SDS011;65482;50.240;14.302;2024-02-16T03:35:22;44.13;;;20.33;;
76593;SDS011;65482;50.240;14.302;2024-02-16T03:37:48;36.50;;;19.83;;
76593;SDS011;65482;50.240;14.302;2024-02-16T03:40:15;36.28;;;18.33;;
76593;SDS011;65482;50.240;14.302;2024-02-16T03:42:42;35.20;;;17.83;;
76593;SDS011;65482;50.240;14.302;2024-02-16T03:45:09;38.42;;;19.85;;
76593;SDS011;65482;50.240;14.302;2024-02-16T03:47:35;42.10;;;20.20;;
76593;SDS011;65482;50.240;14.302;2024-02-16T03:50:08;38.22;;;19.33;;
76593;SDS011;65482;50.240;14.302;2024-02-16T03:52:34;33.88;;;17.40;;
76593;SDS011;65482;50.240;14.302;2024-02-16T03:55:03;35.83;;;19.98;;
76593;SDS011;65482;50.240;14.302;2024-02-16T03:57:31;35.85;;;19.35;;
76593;SDS011;65482;50.240;14.302;2024-02-16T03:59:59;33.67;;;18.65;;
76593;SDS011;65482;50.240;14.302;2024-02-16T04:02:25;35.67;;;18.58;;
76593;SDS011;65482;50.240;14.302;2024-02-16T04:04:54;33.53;;;17.55;;
76593;SDS011;65482;50.240;14.302;2024-02-16T04:07:23;35.92;;;18.48;;
76593;SDS011;65482;50.240;14.302;2024-02-16T04:09:53;37.15;;;18.77;;
76593;SDS011;65482;50.240;14.302;2024-02-16T04:12:22;36.28;;;18.95;;
76593;SDS011;65482;50.240;14.302;2024-02-16T04:14:49;36.30;;;18.08;;
76593;SDS011;65482;50.240;14.302;2024-02-16T04:17:23;32.55;;;17.20;;
76593;SDS011;65482;50.240;14.302;2024-02-16T04:19:50;34.50;;;18.00;;
76593;SDS011;65482;50.240;14.302;2024-02-16T04:22:16;36.03;;;18.45;;
76593;SDS011;65482;50.240;14.302;2024-02-16T04:24:43;35.97;;;18.05;;
76593;SDS011;65482;50.240;14.302;2024-02-16T04:27:12;30.85;;;16.63;;
76593;SDS011;65482;50.240;14.302;2024-02-16T04:29:41;38.60;;;18.83;;
76593;SDS011;65482;50.240;14.302;2024-02-16T04:32:13;35.10;;;18.73;;
76593;SDS011;65482;50.240;14.302;2024-02-16T04:34:43;34.97;;;18.45;;
76593;SDS011;65482;50.240;14.302;2024-02-16T04:37:11;34.70;;;17.50;;
76593;SDS011;65482;50.240;14.302;2024-02-16T04:39:50;35.28;;;17.50;;
76593;SDS011;65482;50.240;14.302;2024-02-16T04:42:17;35.58;;;19.23;;
76593;SDS011;65482;50.240;14.302;2024-02-16T04:44:45;35.63;;;18.50;;
76593;SDS011;65482;50.240;14.302;2024-02-16T04:47:12;34.63;;;19.20;;
76593;SDS011;65482;50.240;14.302;2024-02-16T04:49:43;39.17;;;18.85;;
76593;SDS011;65482;50.240;14.302;2024-02-16T04:52:09;40.00;;;19.10;;
76593;SDS011;65482;50.240;14.302;2024-02-16T04:54:44;39.08;;;20.02;;
76593;SDS011;65482;50.240;14.302;2024-02-16T04:57:14;45.90;;;20.98;;
76593;SDS011;65482;50.240;14.302;2024-02-16T04:59:43;41.28;;;19.83;;
76593;SDS011;65482;50.240;14.302;2024-02-16T05:02:09;39.88;;;19.23;;
76593;SDS011;65482;50.240;14.302;2024-02-16T05:04:38;34.65;;;19.00;;
76593;SDS011;65482;50.240;14.302;2024-02-16T05:07:04;30.70;;;17.88;;
76593;SDS011;65482;50.240;14.302;2024-02-16T05:09:33;31.58;;;17.73;;
76593;SDS011;65482;50.240;14.302;2024-02-16T05:12:00;29.83;;;16.48;;
76593;SDS011;65482;50.240;14.302;2024-02-16T05:14:27;31.83;;;17.80;;
76593;SDS011;65482;50.240;14.302;2024-02-16T05:16:54;31.92;;;16.75;;
76593;SDS011;65482;50.240;14.302;2024-02-16T05:19:23;34.35;;;18.13;;
76593;SDS011;65482;50.240;14.302;2024-02-16T05:22:06;31.67;;;16.90;;
76593;SDS011;65482;50.240;14.302;2024-02-16T05:24:35;34.60;;;16.58;;
76593;SDS011;65482;50.240;14.302;2024-02-16T05:27:01;34.28;;;17.52;;
76593;SDS011;65482;50.240;14.302;2024-02-16T05:29:34;34.25;;;18.00;;
76593;SDS011;65482;50.240;14.302;2024-02-16T05:32:02;34.20;;;17.77;;
76593;SDS011;65482;50.240;14.302;2024-02-16T05:34:37;34.67;;;17.40;;
76593;SDS011;65482;50.240;14.302;2024-02-16T05:37:05;34.15;;;17.70;;
76593;SDS011;65482;50.240;14.302;2024-02-16T05:39:37;33.25;;;17.33;;
76593;SDS011;65482;50.240;14.302;2024-02-16T05:42:19;35.28;;;17.75;;
76593;SDS011;65482;50.240;14.302;2024-02-16T05:44:50;38.20;;;18.67;;
76593;SDS011;65482;50.240;14.302;2024-02-16T05:47:17;37.38;;;19.13;;
76593;SDS011;65482;50.240;14.302;2024-02-16T05:49:48;41.55;;;19.88;;
76593;SDS011;65482;50.240;14.302;2024-02-16T05:52:16;37.55;;;18.45;;
76593;SDS011;65482;50.240;14.302;2024-02-16T05:54:47;37.92;;;18.45;;
76593;SDS011;65482;50.240;14.302;2024-02-16T05:57:15;33.80;;;16.75;;
76593;SDS011;65482;50.240;14.302;2024-02-16T05:59:45;31.15;;;17.20;;
76593;SDS011;65482;50.240;14.302;2024-02-16T06:02:28;34.83;;;17.77;;
76593;SDS011;65482;50.240;14.302;2024-02-16T06:05:00;35.72;;;17.88;;
76593;SDS011;65482;50.240;14.302;2024-02-16T06:11:14;34.78;;;16.25;;
76593;SDS011;65482;50.240;14.302;2024-02-16T06:20:21;38.78;;;19.55;;
76593;SDS011;65482;50.240;14.302;2024-02-16T07:03:06;32.53;;;18.20;;
76593;SDS011;65482;50.240;14.302;2024-02-16T07:05:35;35.13;;;19.02;;
76593;SDS011;65482;50.240;14.302;2024-02-16T07:08:09;33.55;;;18.55;;
76593;SDS011;65482;50.240;14.302;2024-02-16T07:10:47;37.72;;;20.20;;
76593;SDS011;65482;50.240;14.302;2024-02-16T07:13:22;33.90;;;18.98;;
76593;SDS011;65482;50.240;14.302;2024-02-16T07:16:03;42.17;;;19.48;;
76593;SDS011;65482;50.240;14.302;2024-02-16T07:18:39;37.75;;;20.27;;
76593;SDS011;65482;50.240;14.302;2024-02-16T07:21:23;39.67;;;20.08;;
76593;SDS011;65482;50.240;14.302;2024-02-16T07:23:57;41.13;;;22.45;;
76593;SDS011;65482;50.240;14.302;2024-02-16T07:26:37;42.30;;;23.40;;
76593;SDS011;65482;50.240;14.302;2024-02-16T07:29:07;43.83;;;23.42;;
76593;SDS011;65482;50.240;14.302;2024-02-16T07:31:36;44.00;;;24.35;;
76593;SDS011;65482;50.240;14.302;2024-02-16T07:34:18;48.38;;;26.73;;
76593;SDS011;65482;50.240;14.302;2024-02-16T07:36:49;46.20;;;24.73;;
76593;SDS011;65482;50.240;14.302;2024-02-16T07:39:20;42.83;;;22.15;;
76593;SDS011;65482;50.240;14.302;2024-02-16T07:42:10;45.85;;;21.95;;
76593;SDS011;65482;50.240;14.302;2024-02-16T07:44:39;41.03;;;22.38;;
76593;SDS011;65482;50.240;14.302;2024-02-16T07:50:48;50.95;;;27.58;;
76593;SDS011;65482;50.240;14.302;2024-02-16T07:53:32;52.63;;;28.90;;
76593;SDS011;65482;50.240;14.302;2024-02-16T07:56:20;44.83;;;24.58;;
76593;SDS011;65482;50.240;14.302;2024-02-16T07:59:18;48.80;;;25.52;;
76593;SDS011;65482;50.240;14.302;2024-02-16T08:12:57;49.78;;;24.45;;
76593;SDS011;65482;50.240;14.302;2024-02-16T08:15:25;51.70;;;24.48;;
76593;SDS011;65482;50.240;14.302;2024-02-16T08:18:21;44.88;;;23.13;;
76593;SDS011;65482;50.240;14.302;2024-02-16T08:20:49;43.72;;;23.13;;
76593;SDS011;65482;50.240;14.302;2024-02-16T08:23:22;46.25;;;21.92;;
76593;SDS011;65482;50.240;14.302;2024-02-16T08:28:52;40.88;;;21.83;;
76593;SDS011;65482;50.240;14.302;2024-02-16T08:31:18;40.47;;;21.15;;
76593;SDS011;65482;50.240;14.302;2024-02-16T08:33:57;36.58;;;20.25;;
76593;SDS011;65482;50.240;14.302;2024-02-16T08:36:46;38.38;;;19.75;;
76593;SDS011;65482;50.240;14.302;2024-02-16T08:39:42;33.22;;;18.42;;
76593;SDS011;65482;50.240;14.302;2024-02-16T08:42:08;36.05;;;18.63;;
76593;SDS011;65482;50.240;14.302;2024-02-16T08:44:37;34.50;;;19.13;;
76593;SDS011;65482;50.240;14.302;2024-02-16T09:03:15;35.60;;;18.52;;
76593;SDS011;65482;50.240;14.302;2024-02-16T09:05:48;34.20;;;18.40;;
76593;SDS011;65482;50.240;14.302;2024-02-16T09:08:14;35.38;;;19.33;;
76593;SDS011;65482;50.240;14.302;2024-02-16T09:10:40;33.65;;;19.13;;
76593;SDS011;65482;50.240;14.302;2024-02-16T09:13:05;37.83;;;20.60;;
76593;SDS011;65482;50.240;14.302;2024-02-16T09:15:35;31.15;;;18.65;;
76593;SDS011;65482;50.240;14.302;2024-02-16T09:18:05;36.60;;;19.92;;
76593;SDS011;65482;50.240;14.302;2024-02-16T09:20:36;36.67;;;20.58;;
76593;SDS011;65482;50.240;14.302;2024-02-16T09:26:30;35.63;;;18.98;;
76593;SDS011;65482;50.240;14.302;2024-02-16T09:29:00;35.38;;;19.63;;
76593;SDS011;65482;50.240;14.302;2024-02-16T09:31:29;35.60;;;19.27;;
76593;SDS011;65482;50.240;14.302;2024-02-16T09:34:13;38.75;;;19.65;;
76593;SDS011;65482;50.240;14.302;2024-02-16T09:36:40;33.08;;;19.08;;
76593;SDS011;65482;50.240;14.302;2024-02-16T09:39:05;34.25;;;18.52;;
76593;SDS011;65482;50.240;14.302;2024-02-16T09:41:36;34.90;;;19.73;;
76593;SDS011;65482;50.240;14.302;2024-02-16T09:44:07;32.05;;;18.75;;
76593;SDS011;65482;50.240;14.302;2024-02-16T10:13:57;29.43;;;16.67;;
76593;SDS011;65482;50.240;14.302;2024-02-16T10:51:54;27.55;;;16.20;;
76593;SDS011;65482;50.240;14.302;2024-02-16T12:48:38;25.25;;;15.88;;
76593;SDS011;65482;50.240;14.302;2024-02-16T12:52:26;27.77;;;16.95;;
76593;SDS011;65482;50.240;14.302;2024-02-16T12:55:30;28.17;;;16.15;;
76593;SDS011;65482;50.240;14.302;2024-02-16T13:17:30;32.90;;;18.77;;
76593;SDS011;65482;50.240;14.302;2024-02-16T13:21:06;41.58;;;19.45;;
76593;SDS011;65482;50.240;14.302;2024-02-16T13:24:10;30.10;;;18.88;;
76593;SDS011;65482;50.240;14.302;2024-02-16T13:27:58;29.52;;;18.33;;
76593;SDS011;65482;50.240;14.302;2024-02-16T13:48:47;25.90;;;17.63;;
76593;SDS011;65482;50.240;14.302;2024-02-16T13:51:52;32.05;;;18.42;;
76593;SDS011;65482;50.240;14.302;2024-02-16T13:55:18;28.40;;;17.30;;
76593;SDS011;65482;50.240;14.302;2024-02-16T14:01:05;32.17;;;18.70;;
76593;SDS011;65482;50.240;14.302;2024-02-16T14:04:19;28.48;;;18.35;;
76593;SDS011;65482;50.240;14.302;2024-02-16T14:07:17;29.40;;;17.95;;
76593;SDS011;65482;50.240;14.302;2024-02-16T14:10:10;31.70;;;19.30;;
76593;SDS011;65482;50.240;14.302;2024-02-16T14:16:11;30.42;;;18.17;;
76593;SDS011;65482;50.240;14.302;2024-02-16T14:18:44;32.13;;;19.65;;
76593;SDS011;65482;50.240;14.302;2024-02-16T14:21:31;32.75;;;19.60;;
76593;SDS011;65482;50.240;14.302;2024-02-16T14:24:20;31.83;;;18.75;;
76593;SDS011;65482;50.240;14.302;2024-02-16T14:27:14;29.90;;;18.40;;
76593;SDS011;65482;50.240;14.302;2024-02-16T14:29:47;28.13;;;17.05;;
76593;SDS011;65482;50.240;14.302;2024-02-16T14:32:30;25.17;;;18.00;;
76593;SDS011;65482;50.240;14.302;2024-02-16T14:35:18;27.83;;;17.77;;
76593;SDS011;65482;50.240;14.302;2024-02-16T14:37:49;27.45;;;16.67;;
76593;SDS011;65482;50.240;14.302;2024-02-16T14:40:20;28.65;;;17.73;;
76593;SDS011;65482;50.240;14.302;2024-02-16T14:42:51;31.52;;;17.50;;
76593;SDS011;65482;50.240;14.302;2024-02-16T14:45:28;30.20;;;17.40;;
76593;SDS011;65482;50.240;14.302;2024-02-16T14:47:59;29.52;;;17.05;;
76593;SDS011;65482;50.240;14.302;2024-02-16T14:50:43;26.25;;;16.63;;
76593;SDS011;65482;50.240;14.302;2024-02-16T14:53:25;29.45;;;17.67;;
76593;SDS011;65482;50.240;14.302;2024-02-16T14:56:49;28.52;;;17.35;;
76593;SDS011;65482;50.240;14.302;2024-02-16T14:59:20;27.45;;;17.13;;
76593;SDS011;65482;50.240;14.302;2024-02-16T15:05:59;26.63;;;16.67;;
76593;SDS011;65482;50.240;14.302;2024-02-16T15:08:29;30.50;;;17.40;;
76593;SDS011;65482;50.240;14.302;2024-02-16T15:11:06;27.50;;;17.48;;
76593;SDS011;65482;50.240;14.302;2024-02-16T15:13:35;30.15;;;17.00;;
76593;SDS011;65482;50.240;14.302;2024-02-16T15:16:08;30.27;;;17.60;;
76593;SDS011;65482;50.240;14.302;2024-02-16T15:18:39;26.95;;;16.50;;
76593;SDS011;65482;50.240;14.302;2024-02-16T15:21:06;29.33;;;17.92;;
76593;SDS011;65482;50.240;14.302;2024-02-16T15:23:33;29.27;;;18.55;;
76593;SDS011;65482;50.240;14.302;2024-02-16T15:25:59;29.30;;;17.20;;
76593;SDS011;65482;50.240;14.302;2024-02-16T15:28:28;31.13;;;17.75;;
76593;SDS011;65482;50.240;14.302;2024-02-16T15:30:54;29.95;;;17.10;;
76593;SDS011;65482;50.240;14.302;2024-02-16T15:33:20;31.63;;;18.23;;
76593;SDS011;65482;50.240;14.302;2024-02-16T15:35:52;27.45;;;17.10;;
76593;SDS011;65482;50.240;14.302;2024-02-16T15:38:20;24.63;;;16.15;;
76593;SDS011;65482;50.240;14.302;2024-02-16T15:40:57;25.50;;;16.27;;
76593;SDS011;65482;50.240;14.302;2024-02-16T15:43:26;33.60;;;19.83;;
76593;SDS011;65482;50.240;14.302;2024-02-16T15:45:53;34.80;;;19.90;;
76593;SDS011;65482;50.240;14.302;2024-02-16T15:48:22;34.60;;;20.92;;
76593;SDS011;65482;50.240;14.302;2024-02-16T15:50:49;36.90;;;21.00;;
76593;SDS011;65482;50.240;14.302;2024-02-16T15:53:30;35.90;;;21.65;;
76593;SDS011;65482;50.240;14.302;2024-02-16T15:56:03;39.58;;;22.85;;
76593;SDS011;65482;50.240;14.302;2024-02-16T15:58:36;36.83;;;22.38;;
76593;SDS011;65482;50.240;14.302;2024-02-16T16:01:12;38.47;;;22.48;;
76593;SDS011;65482;50.240;14.302;2024-02-16T16:03:48;43.42;;;24.42;;
76593;SDS011;65482;50.240;14.302;2024-02-16T16:06:30;40.30;;;23.83;;
76593;SDS011;65482;50.240;14.302;2024-02-16T16:09:00;41.60;;;23.35;;
76593;SDS011;65482;50.240;14.302;2024-02-16T16:11:29;40.60;;;23.88;;
76593;SDS011;65482;50.240;14.302;2024-02-16T16:14:01;40.20;;;23.05;;
76593;SDS011;65482;50.240;14.302;2024-02-16T16:16:38;45.53;;;23.85;;
76593;SDS011;65482;50.240;14.302;2024-02-16T16:19:09;42.80;;;24.13;;
76593;SDS011;65482;50.240;14.302;2024-02-16T16:21:40;44.53;;;24.50;;
76593;SDS011;65482;50.240;14.302;2024-02-16T16:24:13;38.97;;;23.10;;
76593;SDS011;65482;50.240;14.302;2024-02-16T16:26:43;44.05;;;24.88;;
76593;SDS011;65482;50.240;14.302;2024-02-16T16:29:11;45.72;;;26.20;;
76593;SDS011;65482;50.240;14.302;2024-02-16T16:31:41;52.63;;;29.33;;
76593;SDS011;65482;50.240;14.302;2024-02-16T16:34:07;60.25;;;32.20;;
76593;SDS011;65482;50.240;14.302;2024-02-16T16:36:33;52.80;;;30.30;;
76593;SDS011;65482;50.240;14.302;2024-02-16T16:38:59;53.92;;;30.98;;
76593;SDS011;65482;50.240;14.302;2024-02-16T16:41:27;56.40;;;30.63;;
76593;SDS011;65482;50.240;14.302;2024-02-16T16:43:59;54.67;;;29.52;;
76593;SDS011;65482;50.240;14.302;2024-02-16T16:46:35;53.13;;;29.95;;
76593;SDS011;65482;50.240;14.302;2024-02-16T16:49:06;55.75;;;29.98;;
76593;SDS011;65482;50.240;14.302;2024-02-16T16:51:44;51.33;;;29.55;;
76593;SDS011;65482;50.240;14.302;2024-02-16T16:54:39;50.55;;;29.20;;
76593;SDS011;65482;50.240;14.302;2024-02-16T16:57:20;51.33;;;29.73;;
76593;SDS011;65482;50.240;14.302;2024-02-16T16:59:50;51.83;;;30.15;;
76593;SDS011;65482;50.240;14.302;2024-02-16T17:02:38;56.13;;;29.95;;
76593;SDS011;65482;50.240;14.302;2024-02-16T17:05:12;54.90;;;30.02;;
76593;SDS011;65482;50.240;14.302;2024-02-16T17:07:45;56.35;;;28.58;;
76593;SDS011;65482;50.240;14.302;2024-02-16T17:10:31;54.78;;;30.83;;
76593;SDS011;65482;50.240;14.302;2024-02-16T17:12:57;55.45;;;29.83;;
76593;SDS011;65482;50.240;14.302;2024-02-16T17:16:00;50.55;;;28.73;;
76593;SDS011;65482;50.240;14.302;2024-02-16T17:18:40;54.05;;;29.80;;
76593;SDS011;65482;50.240;14.302;2024-02-16T17:21:15;51.33;;;28.85;;
76593;SDS011;65482;50.240;14.302;2024-02-16T17:23:41;51.05;;;28.45;;
76593;SDS011;65482;50.240;14.302;2024-02-16T17:26:06;49.28;;;28.75;;
76593;SDS011;65482;50.240;14.302;2024-02-16T17:28:33;48.30;;;28.50;;
76593;SDS011;65482;50.240;14.302;2024-02-16T17:31:04;56.58;;;29.92;;
76593;SDS011;65482;50.240;14.302;2024-02-16T17:33:33;53.88;;;30.02;;
76593;SDS011;65482;50.240;14.302;2024-02-16T17:36:09;50.08;;;28.73;;
76593;SDS011;65482;50.240;14.302;2024-02-16T17:38:39;49.08;;;28.45;;
76593;SDS011;65482;50.240;14.302;2024-02-16T17:41:05;55.90;;;28.83;;
76593;SDS011;65482;50.240;14.302;2024-02-16T17:43:32;53.08;;;29.42;;
76593;SDS011;65482;50.240;14.302;2024-02-16T17:46:02;63.10;;;33.25;;
76593;SDS011;65482;50.240;14.302;2024-02-16T17:48:29;59.72;;;33.25;;
76593;SDS011;65482;50.240;14.302;2024-02-16T17:50:59;65.22;;;34.72;;
76593;SDS011;65482;50.240;14.302;2024-02-16T17:53:33;67.55;;;35.30;;
76593;SDS011;65482;50.240;14.302;2024-02-16T17:56:04;69.47;;;33.35;;
76593;SDS011;65482;50.240;14.302;2024-02-16T17:58:43;69.22;;;33.28;;
76593;SDS011;65482;50.240;14.302;2024-02-16T18:01:12;70.85;;;33.88;;
76593;SDS011;65482;50.240;14.302;2024-02-16T18:03:43;72.30;;;32.72;;
76593;SDS011;65482;50.240;14.302;2024-02-16T18:06:10;58.95;;;29.48;;
76593;SDS011;65482;50.240;14.302;2024-02-16T18:08:41;58.15;;;28.73;;
76593;SDS011;65482;50.240;14.302;2024-02-16T18:11:11;53.95;;;27.98;;
76593;SDS011;65482;50.240;14.302;2024-02-16T18:13:41;53.97;;;27.77;;
76593;SDS011;65482;50.240;14.302;2024-02-16T18:16:07;48.85;;;27.30;;
76593;SDS011;65482;50.240;14.302;2024-02-16T18:18:37;56.08;;;28.90;;
76593;SDS011;65482;50.240;14.302;2024-02-16T18:21:12;53.10;;;28.35;;
76593;SDS011;65482;50.240;14.302;2024-02-16T18:24:00;52.67;;;28.15;;
76593;SDS011;65482;50.240;14.302;2024-02-16T18:26:34;56.85;;;30.42;;
76593;SDS011;65482;50.240;14.302;2024-02-16T18:29:07;54.10;;;30.30;;
76593;SDS011;65482;50.240;14.302;2024-02-16T18:31:40;56.75;;;30.33;;
76593;SDS011;65482;50.240;14.302;2024-02-16T18:36:55;58.33;;;29.53;;
76593;SDS011;65482;50.240;14.302;2024-02-16T18:42:39;56.47;;;30.25;;
76593;SDS011;65482;50.240;14.302;2024-02-16T18:45:06;58.22;;;30.10;;
76593;SDS011;65482;50.240;14.302;2024-02-16T18:47:36;65.47;;;30.85;;
76593;SDS011;65482;50.240;14.302;2024-02-16T18:50:04;60.30;;;32.80;;
76593;SDS011;65482;50.240;14.302;2024-02-16T18:52:31;59.08;;;31.20;;
76593;SDS011;65482;50.240;14.302;2024-02-16T18:55:12;62.38;;;32.33;;
76593;SDS011;65482;50.240;14.302;2024-02-16T18:57:43;65.13;;;33.05;;
76593;SDS011;65482;50.240;14.302;2024-02-16T19:00:12;62.65;;;32.05;;
76593;SDS011;65482;50.240;14.302;2024-02-16T19:02:38;66.45;;;33.45;;
76593;SDS011;65482;50.240;14.302;2024-02-16T19:05:09;68.28;;;34.33;;
76593;SDS011;65482;50.240;14.302;2024-02-16T19:07:37;69.15;;;33.20;;
76593;SDS011;65482;50.240;14.302;2024-02-16T19:10:05;69.15;;;33.15;;
76593;SDS011;65482;50.240;14.302;2024-02-16T19:12:31;64.80;;;31.52;;
76593;SDS011;65482;50.240;14.302;2024-02-16T19:15:02;59.88;;;29.83;;
76593;SDS011;65482;50.240;14.302;2024-02-16T19:17:34;57.85;;;30.05;;
76593;SDS011;65482;50.240;14.302;2024-02-16T19:20:03;61.40;;;30.30;;
76593;SDS011;65482;50.240;14.302;2024-02-16T19:22:31;58.72;;;29.90;;
76593;SDS011;65482;50.240;14.302;2024-02-16T19:24:58;59.97;;;30.50;;
76593;SDS011;65482;50.240;14.302;2024-02-16T19:27:25;58.28;;;30.90;;
76593;SDS011;65482;50.240;14.302;2024-02-16T19:29:52;63.78;;;33.58;;
76593;SDS011;65482;50.240;14.302;2024-02-16T19:32:19;63.40;;;32.20;;
76593;SDS011;65482;50.240;14.302;2024-02-16T19:34:46;63.97;;;33.58;;
76593;SDS011;65482;50.240;14.302;2024-02-16T19:37:30;64.30;;;35.00;;
76593;SDS011;65482;50.240;14.302;2024-02-16T19:39:57;64.15;;;35.97;;
76593;SDS011;65482;50.240;14.302;2024-02-16T19:42:23;58.60;;;31.83;;
76593;SDS011;65482;50.240;14.302;2024-02-16T19:44:55;61.35;;;32.92;;
76593;SDS011;65482;50.240;14.302;2024-02-16T19:47:33;64.80;;;34.17;;
76593;SDS011;65482;50.240;14.302;2024-02-16T19:50:11;62.05;;;33.03;;
76593;SDS011;65482;50.240;14.302;2024-02-16T19:52:40;58.83;;;32.15;;
76593;SDS011;65482;50.240;14.302;2024-02-16T19:55:10;60.63;;;32.10;;
76593;SDS011;65482;50.240;14.302;2024-02-16T19:57:40;58.15;;;32.03;;
76593;SDS011;65482;50.240;14.302;2024-02-16T20:03:39;57.70;;;30.17;;